sensor_id;sensor_type;location;lat;lon;timestamp;P1;durP1;ratioP1;P2;durP2;ratioP2
11113;SDS011;5610;52.154;9.198;2024-01-11T00:01:45;43.88;;;30.98;;
11113;SDS011;5610;52.154;9.198;2024-01-11T00:04:31;46.53;;;33.80;;
11113;SDS011;5610;52.154;9.198;2024-01-11T00:07:16;45.58;;;32.80;;
11113;SDS011;5610;52.154;9.198;2024-01-11T00:10:02;47.90;;;34.00;;
11113;SDS011;5610;52.154;9.198;2024-01-11T00:12:48;49.10;;;32.92;;
11113;SDS011;5610;52.154;9.198;2024-01-11T00:15:33;44.92;;;32.70;;
11113;SDS011;5610;52.154;9.198;2024-01-11T00:18:19;45.10;;;33.20;;
11113;SDS011;5610;52.154;9.198;2024-01-11T00:21:04;44.70;;;32.85;;
11113;SDS011;5610;52.154;9.198;2024-01-11T00:23:49;48.17;;;33.67;;
11113;SDS011;5610;52.154;9.198;2024-01-11T00:26:34;50.83;;;36.10;;
11113;SDS011;5610;52.154;9.198;2024-01-11T00:29:20;51.58;;;35.20;;
11113;SDS011;5610;52.154;9.198;2024-01-11T00:32:05;49.75;;;36.65;;
11113;SDS011;5610;52.154;9.198;2024-01-11T00:34:52;51.17;;;38.17;;
11113;SDS011;5610;52.154;9.198;2024-01-11T00:37:37;51.28;;;38.55;;
11113;SDS011;5610;52.154;9.198;2024-01-11T00:40:22;49.25;;;37.50;;
11113;SDS011;5610;52.154;9.198;2024-01-11T00:43:07;56.03;;;37.67;;
11113;SDS011;5610;52.154;9.198;2024-01-11T00:45:52;53.38;;;35.17;;
11113;SDS011;5610;52.154;9.198;2024-01-11T00:48:38;55.17;;;37.72;;
11113;SDS011;5610;52.154;9.198;2024-01-11T00:51:25;52.28;;;36.33;;
11113;SDS011;5610;52.154;9.198;2024-01-11T00:54:10;57.13;;;37.92;;
11113;SDS011;5610;52.154;9.198;2024-01-11T00:56:55;51.85;;;38.63;;
11113;SDS011;5610;52.154;9.198;2024-01-11T00:59:40;55.05;;;36.88;;
11113;SDS011;5610;52.154;9.198;2024-01-11T01:02:25;53.50;;;38.00;;
11113;SDS011;5610;52.154;9.198;2024-01-11T01:05:11;53.65;;;37.30;;
11113;SDS011;5610;52.154;9.198;2024-01-11T01:07:58;52.63;;;36.97;;
11113;SDS011;5610;52.154;9.198;2024-01-11T01:10:43;51.90;;;38.05;;
11113;SDS011;5610;52.154;9.198;2024-01-11T01:13:28;55.78;;;37.08;;
11113;SDS011;5610;52.154;9.198;2024-01-11T01:16:13;45.63;;;34.80;;
11113;SDS011;5610;52.154;9.198;2024-01-11T01:19:01;47.45;;;34.58;;
11113;SDS011;5610;52.154;9.198;2024-01-11T01:21:46;51.28;;;37.65;;
11113;SDS011;5610;52.154;9.198;2024-01-11T01:24:32;49.33;;;36.25;;
11113;SDS011;5610;52.154;9.198;2024-01-11T01:27:18;47.00;;;33.30;;
11113;SDS011;5610;52.154;9.198;2024-01-11T01:30:03;49.42;;;35.75;;
11113;SDS011;5610;52.154;9.198;2024-01-11T01:32:50;54.00;;;37.13;;
11113;SDS011;5610;52.154;9.198;2024-01-11T01:35:35;49.88;;;37.33;;
11113;SDS011;5610;52.154;9.198;2024-01-11T01:38:20;52.40;;;36.25;;
11113;SDS011;5610;52.154;9.198;2024-01-11T01:41:07;50.40;;;39.72;;
11113;SDS011;5610;52.154;9.198;2024-01-11T01:43:53;57.47;;;38.95;;
11113;SDS011;5610;52.154;9.198;2024-01-11T01:46:38;53.85;;;36.92;;
11113;SDS011;5610;52.154;9.198;2024-01-11T01:49:23;49.60;;;35.50;;
11113;SDS011;5610;52.154;9.198;2024-01-11T01:52:09;52.47;;;37.83;;
11113;SDS011;5610;52.154;9.198;2024-01-11T01:54:55;51.33;;;39.65;;
11113;SDS011;5610;52.154;9.198;2024-01-11T01:57:44;53.30;;;38.13;;
11113;SDS011;5610;52.154;9.198;2024-01-11T02:00:31;58.25;;;38.45;;
11113;SDS011;5610;52.154;9.198;2024-01-11T02:03:17;50.55;;;38.08;;
11113;SDS011;5610;52.154;9.198;2024-01-11T02:06:03;52.70;;;39.95;;
11113;SDS011;5610;52.154;9.198;2024-01-11T02:08:51;51.72;;;35.70;;
11113;SDS011;5610;52.154;9.198;2024-01-11T02:11:37;45.10;;;34.95;;
11113;SDS011;5610;52.154;9.198;2024-01-11T02:14:24;48.58;;;36.70;;
11113;SDS011;5610;52.154;9.198;2024-01-11T02:17:09;50.92;;;38.17;;
11113;SDS011;5610;52.154;9.198;2024-01-11T02:19:55;46.47;;;34.95;;
11113;SDS011;5610;52.154;9.198;2024-01-11T02:22:40;52.50;;;36.92;;
11113;SDS011;5610;52.154;9.198;2024-01-11T02:25:33;52.58;;;39.10;;
11113;SDS011;5610;52.154;9.198;2024-01-11T02:28:19;50.58;;;36.45;;
11113;SDS011;5610;52.154;9.198;2024-01-11T02:31:03;50.83;;;37.40;;
11113;SDS011;5610;52.154;9.198;2024-01-11T02:33:49;49.60;;;39.47;;
11113;SDS011;5610;52.154;9.198;2024-01-11T02:36:35;53.15;;;38.58;;
11113;SDS011;5610;52.154;9.198;2024-01-11T02:39:20;54.67;;;37.97;;
11113;SDS011;5610;52.154;9.198;2024-01-11T02:42:09;47.47;;;37.70;;
11113;SDS011;5610;52.154;9.198;2024-01-11T02:44:54;44.38;;;34.60;;
11113;SDS011;5610;52.154;9.198;2024-01-11T02:47:39;50.90;;;39.10;;
11113;SDS011;5610;52.154;9.198;2024-01-11T02:50:25;52.35;;;40.15;;
11113;SDS011;5610;52.154;9.198;2024-01-11T02:53:10;51.03;;;38.58;;
11113;SDS011;5610;52.154;9.198;2024-01-11T02:55:55;54.90;;;38.38;;
11113;SDS011;5610;52.154;9.198;2024-01-11T02:58:42;54.45;;;40.08;;
11113;SDS011;5610;52.154;9.198;2024-01-11T03:01:27;57.10;;;40.47;;
11113;SDS011;5610;52.154;9.198;2024-01-11T03:04:12;52.30;;;38.38;;
11113;SDS011;5610;52.154;9.198;2024-01-11T03:06:58;53.67;;;38.50;;
11113;SDS011;5610;52.154;9.198;2024-01-11T03:09:43;53.90;;;38.70;;
11113;SDS011;5610;52.154;9.198;2024-01-11T03:12:28;58.13;;;37.15;;
11113;SDS011;5610;52.154;9.198;2024-01-11T03:15:15;57.63;;;40.90;;
11113;SDS011;5610;52.154;9.198;2024-01-11T03:18:00;52.65;;;39.40;;
11113;SDS011;5610;52.154;9.198;2024-01-11T03:20:45;53.38;;;37.88;;
11113;SDS011;5610;52.154;9.198;2024-01-11T03:23:31;55.92;;;41.60;;
11113;SDS011;5610;52.154;9.198;2024-01-11T03:26:16;53.10;;;37.83;;
11113;SDS011;5610;52.154;9.198;2024-01-11T03:29:02;50.40;;;40.10;;
11113;SDS011;5610;52.154;9.198;2024-01-11T03:31:48;50.30;;;36.85;;
11113;SDS011;5610;52.154;9.198;2024-01-11T03:34:33;45.13;;;37.75;;
11113;SDS011;5610;52.154;9.198;2024-01-11T03:37:18;49.75;;;38.42;;
11113;SDS011;5610;52.154;9.198;2024-01-11T03:40:04;48.90;;;35.63;;
11113;SDS011;5610;52.154;9.198;2024-01-11T03:42:50;53.30;;;37.10;;
11113;SDS011;5610;52.154;9.198;2024-01-11T03:45:36;48.63;;;35.13;;
11113;SDS011;5610;52.154;9.198;2024-01-11T03:48:22;56.53;;;42.40;;
11113;SDS011;5610;52.154;9.198;2024-01-11T03:51:08;54.05;;;37.88;;
11113;SDS011;5610;52.154;9.198;2024-01-11T03:53:53;56.53;;;39.83;;
11113;SDS011;5610;52.154;9.198;2024-01-11T03:56:38;56.58;;;39.03;;
11113;SDS011;5610;52.154;9.198;2024-01-11T03:59:24;57.67;;;38.70;;
11113;SDS011;5610;52.154;9.198;2024-01-11T04:02:09;56.47;;;39.22;;
11113;SDS011;5610;52.154;9.198;2024-01-11T04:04:56;54.60;;;37.17;;
11113;SDS011;5610;52.154;9.198;2024-01-11T04:07:41;50.50;;;39.13;;
11113;SDS011;5610;52.154;9.198;2024-01-11T04:10:26;54.40;;;39.17;;
11113;SDS011;5610;52.154;9.198;2024-01-11T04:13:11;54.58;;;37.72;;
11113;SDS011;5610;52.154;9.198;2024-01-11T04:15:56;52.05;;;36.80;;
11113;SDS011;5610;52.154;9.198;2024-01-11T04:18:41;55.33;;;38.25;;
11113;SDS011;5610;52.154;9.198;2024-01-11T04:21:28;68.97;;;43.30;;
11113;SDS011;5610;52.154;9.198;2024-01-11T04:24:13;60.70;;;43.35;;
11113;SDS011;5610;52.154;9.198;2024-01-11T04:26:58;61.65;;;42.40;;
11113;SDS011;5610;52.154;9.198;2024-01-11T04:29:44;52.72;;;41.30;;
11113;SDS011;5610;52.154;9.198;2024-01-11T04:32:29;53.38;;;40.65;;
11113;SDS011;5610;52.154;9.198;2024-01-11T04:35:15;56.30;;;40.47;;
11113;SDS011;5610;52.154;9.198;2024-01-11T04:38:01;56.70;;;39.72;;
11113;SDS011;5610;52.154;9.198;2024-01-11T04:40:47;55.13;;;39.20;;
11113;SDS011;5610;52.154;9.198;2024-01-11T04:43:32;56.80;;;37.70;;
11113;SDS011;5610;52.154;9.198;2024-01-11T04:46:17;51.92;;;39.63;;
11113;SDS011;5610;52.154;9.198;2024-01-11T04:49:03;56.97;;;40.55;;
11113;SDS011;5610;52.154;9.198;2024-01-11T04:51:49;52.63;;;39.17;;
11113;SDS011;5610;52.154;9.198;2024-01-11T04:54:35;55.35;;;38.47;;
11113;SDS011;5610;52.154;9.198;2024-01-11T04:57:21;52.72;;;38.70;;
11113;SDS011;5610;52.154;9.198;2024-01-11T05:00:07;51.78;;;36.92;;
11113;SDS011;5610;52.154;9.198;2024-01-11T05:02:53;51.60;;;35.25;;
11113;SDS011;5610;52.154;9.198;2024-01-11T05:05:38;51.40;;;35.28;;
11113;SDS011;5610;52.154;9.198;2024-01-11T05:08:23;53.40;;;36.10;;
11113;SDS011;5610;52.154;9.198;2024-01-11T05:11:15;54.00;;;38.40;;
11113;SDS011;5610;52.154;9.198;2024-01-11T05:14:02;50.60;;;37.03;;
11113;SDS011;5610;52.154;9.198;2024-01-11T05:16:47;48.45;;;36.85;;
11113;SDS011;5610;52.154;9.198;2024-01-11T05:19:34;47.97;;;36.97;;
11113;SDS011;5610;52.154;9.198;2024-01-11T05:22:19;52.00;;;37.33;;
11113;SDS011;5610;52.154;9.198;2024-01-11T05:25:06;50.53;;;36.13;;
11113;SDS011;5610;52.154;9.198;2024-01-11T05:27:53;50.25;;;36.88;;
11113;SDS011;5610;52.154;9.198;2024-01-11T05:30:38;48.45;;;35.95;;
11113;SDS011;5610;52.154;9.198;2024-01-11T05:33:23;50.13;;;37.08;;
11113;SDS011;5610;52.154;9.198;2024-01-11T05:36:09;50.97;;;38.20;;
11113;SDS011;5610;52.154;9.198;2024-01-11T05:38:54;54.30;;;38.65;;
11113;SDS011;5610;52.154;9.198;2024-01-11T05:41:39;54.72;;;38.33;;
11113;SDS011;5610;52.154;9.198;2024-01-11T05:44:29;52.50;;;38.10;;
11113;SDS011;5610;52.154;9.198;2024-01-11T05:47:15;54.47;;;39.22;;
11113;SDS011;5610;52.154;9.198;2024-01-11T05:50:00;67.50;;;46.45;;
11113;SDS011;5610;52.154;9.198;2024-01-11T05:52:46;65.70;;;49.40;;
11113;SDS011;5610;52.154;9.198;2024-01-11T05:55:31;55.78;;;41.72;;
11113;SDS011;5610;52.154;9.198;2024-01-11T05:58:16;56.42;;;42.80;;
11113;SDS011;5610;52.154;9.198;2024-01-11T06:01:03;59.05;;;41.38;;
11113;SDS011;5610;52.154;9.198;2024-01-11T06:03:48;54.30;;;43.97;;
11113;SDS011;5610;52.154;9.198;2024-01-11T06:06:33;54.80;;;39.80;;
11113;SDS011;5610;52.154;9.198;2024-01-11T06:09:18;58.72;;;41.65;;
11113;SDS011;5610;52.154;9.198;2024-01-11T06:12:04;54.58;;;38.97;;
11113;SDS011;5610;52.154;9.198;2024-01-11T06:14:50;52.63;;;38.90;;
11113;SDS011;5610;52.154;9.198;2024-01-11T06:17:37;53.83;;;38.22;;
11113;SDS011;5610;52.154;9.198;2024-01-11T06:20:22;62.83;;;44.58;;
11113;SDS011;5610;52.154;9.198;2024-01-11T06:23:07;57.67;;;40.08;;
11113;SDS011;5610;52.154;9.198;2024-01-11T06:25:52;64.90;;;45.28;;
11113;SDS011;5610;52.154;9.198;2024-01-11T06:28:37;63.40;;;43.28;;
11113;SDS011;5610;52.154;9.198;2024-01-11T06:31:23;61.60;;;44.28;;
11113;SDS011;5610;52.154;9.198;2024-01-11T06:34:09;60.47;;;41.80;;
11113;SDS011;5610;52.154;9.198;2024-01-11T06:36:55;61.67;;;41.85;;
11113;SDS011;5610;52.154;9.198;2024-01-11T06:39:40;62.78;;;41.90;;
11113;SDS011;5610;52.154;9.198;2024-01-11T06:42:25;61.58;;;43.40;;
11113;SDS011;5610;52.154;9.198;2024-01-11T06:45:10;56.15;;;40.50;;
11113;SDS011;5610;52.154;9.198;2024-01-11T06:47:56;51.35;;;38.33;;
11113;SDS011;5610;52.154;9.198;2024-01-11T06:50:42;56.28;;;39.20;;
11113;SDS011;5610;52.154;9.198;2024-01-11T06:53:28;48.30;;;37.45;;
11113;SDS011;5610;52.154;9.198;2024-01-11T06:56:13;63.78;;;47.50;;
11113;SDS011;5610;52.154;9.198;2024-01-11T06:58:59;56.08;;;44.20;;
11113;SDS011;5610;52.154;9.198;2024-01-11T07:01:45;62.92;;;46.72;;
11113;SDS011;5610;52.154;9.198;2024-01-11T07:04:30;55.83;;;43.15;;
11113;SDS011;5610;52.154;9.198;2024-01-11T07:07:18;51.00;;;38.15;;
11113;SDS011;5610;52.154;9.198;2024-01-11T07:10:03;54.60;;;37.70;;
11113;SDS011;5610;52.154;9.198;2024-01-11T07:12:49;55.10;;;40.88;;
11113;SDS011;5610;52.154;9.198;2024-01-11T07:15:35;58.45;;;42.75;;
11113;SDS011;5610;52.154;9.198;2024-01-11T07:18:20;54.30;;;41.50;;
11113;SDS011;5610;52.154;9.198;2024-01-11T07:21:06;58.00;;;41.47;;
11113;SDS011;5610;52.154;9.198;2024-01-11T07:23:52;59.90;;;40.35;;
11113;SDS011;5610;52.154;9.198;2024-01-11T07:26:38;60.80;;;43.15;;
11113;SDS011;5610;52.154;9.198;2024-01-11T07:29:24;62.17;;;40.00;;
11113;SDS011;5610;52.154;9.198;2024-01-11T07:32:09;56.63;;;42.28;;
11113;SDS011;5610;52.154;9.198;2024-01-11T07:34:54;60.28;;;41.92;;
11113;SDS011;5610;52.154;9.198;2024-01-11T07:37:39;52.25;;;41.90;;
11113;SDS011;5610;52.154;9.198;2024-01-11T07:40:26;50.30;;;38.38;;
11113;SDS011;5610;52.154;9.198;2024-01-11T07:43:12;58.53;;;41.55;;
11113;SDS011;5610;52.154;9.198;2024-01-11T07:45:58;57.28;;;42.10;;
11113;SDS011;5610;52.154;9.198;2024-01-11T07:48:43;58.25;;;41.60;;
11113;SDS011;5610;52.154;9.198;2024-01-11T07:51:28;53.05;;;39.22;;
11113;SDS011;5610;52.154;9.198;2024-01-11T07:54:13;54.65;;;38.35;;
11113;SDS011;5610;52.154;9.198;2024-01-11T07:56:59;60.70;;;40.05;;
11113;SDS011;5610;52.154;9.198;2024-01-11T07:59:46;54.70;;;38.13;;
11113;SDS011;5610;52.154;9.198;2024-01-11T08:02:32;61.30;;;40.70;;
11113;SDS011;5610;52.154;9.198;2024-01-11T08:05:17;53.63;;;38.67;;
11113;SDS011;5610;52.154;9.198;2024-01-11T08:08:03;63.35;;;41.78;;
11113;SDS011;5610;52.154;9.198;2024-01-11T08:10:48;62.45;;;39.30;;
11113;SDS011;5610;52.154;9.198;2024-01-11T08:13:35;57.05;;;39.65;;
11113;SDS011;5610;52.154;9.198;2024-01-11T08:16:21;57.80;;;42.25;;
11113;SDS011;5610;52.154;9.198;2024-01-11T08:19:06;57.97;;;39.78;;
11113;SDS011;5610;52.154;9.198;2024-01-11T08:21:53;57.55;;;40.42;;
11113;SDS011;5610;52.154;9.198;2024-01-11T08:24:40;58.35;;;41.92;;
11113;SDS011;5610;52.154;9.198;2024-01-11T08:27:25;60.53;;;40.70;;
11113;SDS011;5610;52.154;9.198;2024-01-11T08:30:12;52.75;;;39.28;;
11113;SDS011;5610;52.154;9.198;2024-01-11T08:32:57;60.20;;;39.22;;
11113;SDS011;5610;52.154;9.198;2024-01-11T08:35:42;51.65;;;38.83;;
11113;SDS011;5610;52.154;9.198;2024-01-11T08:38:27;57.97;;;40.80;;
11113;SDS011;5610;52.154;9.198;2024-01-11T08:41:13;54.78;;;39.70;;
11113;SDS011;5610;52.154;9.198;2024-01-11T08:43:58;56.92;;;39.70;;
11113;SDS011;5610;52.154;9.198;2024-01-11T08:46:45;58.80;;;39.28;;
11113;SDS011;5610;52.154;9.198;2024-01-11T08:49:30;51.30;;;38.35;;
11113;SDS011;5610;52.154;9.198;2024-01-11T08:52:16;57.00;;;40.50;;
11113;SDS011;5610;52.154;9.198;2024-01-11T08:55:02;63.00;;;41.15;;
11113;SDS011;5610;52.154;9.198;2024-01-11T08:57:48;63.92;;;39.95;;
11113;SDS011;5610;52.154;9.198;2024-01-11T09:00:33;54.85;;;39.38;;
11113;SDS011;5610;52.154;9.198;2024-01-11T09:03:19;62.80;;;42.40;;
11113;SDS011;5610;52.154;9.198;2024-01-11T09:06:05;67.50;;;46.60;;
11113;SDS011;5610;52.154;9.198;2024-01-11T09:08:50;60.38;;;42.25;;
11113;SDS011;5610;52.154;9.198;2024-01-11T09:11:36;56.15;;;39.28;;
11113;SDS011;5610;52.154;9.198;2024-01-11T09:14:21;56.08;;;37.58;;
11113;SDS011;5610;52.154;9.198;2024-01-11T09:17:06;46.80;;;34.97;;
11113;SDS011;5610;52.154;9.198;2024-01-11T09:19:53;52.22;;;35.58;;
11113;SDS011;5610;52.154;9.198;2024-01-11T09:22:39;55.80;;;35.20;;
11113;SDS011;5610;52.154;9.198;2024-01-11T09:25:24;47.85;;;34.35;;
11113;SDS011;5610;52.154;9.198;2024-01-11T09:28:10;50.42;;;35.92;;
11113;SDS011;5610;52.154;9.198;2024-01-11T09:30:55;45.83;;;31.95;;
11113;SDS011;5610;52.154;9.198;2024-01-11T09:33:43;45.13;;;30.88;;
11113;SDS011;5610;52.154;9.198;2024-01-11T09:36:30;48.13;;;31.88;;
11113;SDS011;5610;52.154;9.198;2024-01-11T09:39:15;50.60;;;32.08;;
11113;SDS011;5610;52.154;9.198;2024-01-11T09:42:03;42.60;;;30.83;;
11113;SDS011;5610;52.154;9.198;2024-01-11T09:44:53;48.55;;;31.80;;
11113;SDS011;5610;52.154;9.198;2024-01-11T09:47:39;46.88;;;32.28;;
11113;SDS011;5610;52.154;9.198;2024-01-11T09:50:25;44.08;;;26.10;;
11113;SDS011;5610;52.154;9.198;2024-01-11T09:53:12;34.38;;;24.20;;
11113;SDS011;5610;52.154;9.198;2024-01-11T09:55:57;34.88;;;23.10;;
11113;SDS011;5610;52.154;9.198;2024-01-11T09:58:44;31.85;;;21.30;;
11113;SDS011;5610;52.154;9.198;2024-01-11T10:01:32;26.38;;;19.67;;
11113;SDS011;5610;52.154;9.198;2024-01-11T10:04:17;25.33;;;18.20;;
11113;SDS011;5610;52.154;9.198;2024-01-11T10:07:03;29.70;;;20.85;;
11113;SDS011;5610;52.154;9.198;2024-01-11T10:09:51;30.85;;;21.23;;
11113;SDS011;5610;52.154;9.198;2024-01-11T10:12:37;32.83;;;24.13;;
11113;SDS011;5610;52.154;9.198;2024-01-11T10:15:23;30.40;;;22.25;;
11113;SDS011;5610;52.154;9.198;2024-01-11T10:18:08;28.35;;;20.48;;
11113;SDS011;5610;52.154;9.198;2024-01-11T10:20:55;30.85;;;21.00;;
11113;SDS011;5610;52.154;9.198;2024-01-11T10:23:42;23.35;;;16.80;;
11113;SDS011;5610;52.154;9.198;2024-01-11T10:26:28;17.57;;;12.93;;
11113;SDS011;5610;52.154;9.198;2024-01-11T10:29:15;16.80;;;13.80;;
11113;SDS011;5610;52.154;9.198;2024-01-11T10:32:01;22.30;;;17.60;;
11113;SDS011;5610;52.154;9.198;2024-01-11T10:34:48;22.98;;;17.05;;
11113;SDS011;5610;52.154;9.198;2024-01-11T10:37:33;28.53;;;18.83;;
11113;SDS011;5610;52.154;9.198;2024-01-11T10:40:19;23.10;;;18.20;;
11113;SDS011;5610;52.154;9.198;2024-01-11T10:43:09;21.33;;;16.80;;
11113;SDS011;5610;52.154;9.198;2024-01-11T10:45:55;24.52;;;17.20;;
11113;SDS011;5610;52.154;9.198;2024-01-11T10:48:47;21.23;;;16.40;;
11113;SDS011;5610;52.154;9.198;2024-01-11T10:51:37;21.83;;;18.77;;
11113;SDS011;5610;52.154;9.198;2024-01-11T10:54:24;24.30;;;17.93;;
11113;SDS011;5610;52.154;9.198;2024-01-11T10:57:12;24.42;;;18.35;;
11113;SDS011;5610;52.154;9.198;2024-01-11T10:59:59;25.13;;;18.95;;
11113;SDS011;5610;52.154;9.198;2024-01-11T11:02:49;26.52;;;19.92;;
11113;SDS011;5610;52.154;9.198;2024-01-11T11:05:36;28.65;;;20.27;;
11113;SDS011;5610;52.154;9.198;2024-01-11T11:08:22;27.75;;;18.90;;
11113;SDS011;5610;52.154;9.198;2024-01-11T11:11:10;29.75;;;20.55;;
11113;SDS011;5610;52.154;9.198;2024-01-11T11:13:55;29.98;;;20.17;;
11113;SDS011;5610;52.154;9.198;2024-01-11T11:16:47;29.08;;;20.42;;
11113;SDS011;5610;52.154;9.198;2024-01-11T11:19:32;27.80;;;20.75;;
11113;SDS011;5610;52.154;9.198;2024-01-11T11:22:18;31.30;;;21.77;;
11113;SDS011;5610;52.154;9.198;2024-01-11T11:25:04;28.58;;;20.75;;
11113;SDS011;5610;52.154;9.198;2024-01-11T11:27:53;26.88;;;21.23;;
11113;SDS011;5610;52.154;9.198;2024-01-11T11:30:38;28.67;;;21.25;;
11113;SDS011;5610;52.154;9.198;2024-01-11T11:33:26;35.67;;;23.90;;
11113;SDS011;5610;52.154;9.198;2024-01-11T11:36:12;33.53;;;24.98;;
11113;SDS011;5610;52.154;9.198;2024-01-11T11:38:58;30.85;;;23.58;;
11113;SDS011;5610;52.154;9.198;2024-01-11T11:41:44;39.40;;;26.90;;
11113;SDS011;5610;52.154;9.198;2024-01-11T11:44:30;37.22;;;26.83;;
11113;SDS011;5610;52.154;9.198;2024-01-11T11:47:18;35.20;;;26.05;;
11113;SDS011;5610;52.154;9.198;2024-01-11T11:50:06;40.00;;;29.88;;
11113;SDS011;5610;52.154;9.198;2024-01-11T11:52:53;35.28;;;26.95;;
11113;SDS011;5610;52.154;9.198;2024-01-11T11:55:40;40.38;;;27.45;;
11113;SDS011;5610;52.154;9.198;2024-01-11T11:58:26;38.30;;;28.20;;
11113;SDS011;5610;52.154;9.198;2024-01-11T12:01:11;39.55;;;28.15;;
11113;SDS011;5610;52.154;9.198;2024-01-11T12:03:57;41.67;;;28.00;;
11113;SDS011;5610;52.154;9.198;2024-01-11T12:06:44;40.35;;;27.65;;
11113;SDS011;5610;52.154;9.198;2024-01-11T12:09:29;41.05;;;29.73;;
11113;SDS011;5610;52.154;9.198;2024-01-11T12:12:15;33.75;;;26.63;;
11113;SDS011;5610;52.154;9.198;2024-01-11T12:15:03;36.60;;;26.35;;
11113;SDS011;5610;52.154;9.198;2024-01-11T12:17:49;42.65;;;31.42;;
11113;SDS011;5610;52.154;9.198;2024-01-11T12:20:34;38.80;;;28.23;;
11113;SDS011;5610;52.154;9.198;2024-01-11T12:23:20;38.50;;;27.63;;
11113;SDS011;5610;52.154;9.198;2024-01-11T12:26:06;39.28;;;27.10;;
11113;SDS011;5610;52.154;9.198;2024-01-11T12:28:56;38.35;;;26.83;;
11113;SDS011;5610;52.154;9.198;2024-01-11T12:31:42;43.13;;;28.73;;
11113;SDS011;5610;52.154;9.198;2024-01-11T12:34:27;37.65;;;27.10;;
11113;SDS011;5610;52.154;9.198;2024-01-11T12:37:14;45.17;;;29.55;;
11113;SDS011;5610;52.154;9.198;2024-01-11T12:40:01;42.22;;;28.15;;
11113;SDS011;5610;52.154;9.198;2024-01-11T12:42:47;43.45;;;30.05;;
11113;SDS011;5610;52.154;9.198;2024-01-11T12:45:33;37.20;;;26.63;;
11113;SDS011;5610;52.154;9.198;2024-01-11T12:48:19;42.55;;;29.67;;
11113;SDS011;5610;52.154;9.198;2024-01-11T12:51:05;48.30;;;30.60;;
11113;SDS011;5610;52.154;9.198;2024-01-11T12:53:51;43.72;;;28.90;;
11113;SDS011;5610;52.154;9.198;2024-01-11T12:56:38;51.30;;;29.27;;
11113;SDS011;5610;52.154;9.198;2024-01-11T12:59:25;43.30;;;28.55;;
11113;SDS011;5610;52.154;9.198;2024-01-11T13:02:11;43.35;;;29.50;;
11113;SDS011;5610;52.154;9.198;2024-01-11T13:04:57;45.25;;;30.85;;
11113;SDS011;5610;52.154;9.198;2024-01-11T13:07:46;41.10;;;30.27;;
11113;SDS011;5610;52.154;9.198;2024-01-11T13:10:31;45.95;;;29.13;;
11113;SDS011;5610;52.154;9.198;2024-01-11T13:13:18;43.67;;;31.70;;
11113;SDS011;5610;52.154;9.198;2024-01-11T13:16:03;48.90;;;30.52;;
11113;SDS011;5610;52.154;9.198;2024-01-11T13:18:52;49.30;;;30.40;;
11113;SDS011;5610;52.154;9.198;2024-01-11T13:21:37;45.30;;;28.65;;
11113;SDS011;5610;52.154;9.198;2024-01-11T13:24:23;54.42;;;31.40;;
11113;SDS011;5610;52.154;9.198;2024-01-11T13:27:08;54.97;;;34.65;;
11113;SDS011;5610;52.154;9.198;2024-01-11T13:29:55;51.85;;;31.83;;
11113;SDS011;5610;52.154;9.198;2024-01-11T13:32:40;45.28;;;31.67;;
11113;SDS011;5610;52.154;9.198;2024-01-11T13:35:25;56.45;;;32.25;;
11113;SDS011;5610;52.154;9.198;2024-01-11T13:38:11;50.08;;;32.28;;
11113;SDS011;5610;52.154;9.198;2024-01-11T13:40:57;57.03;;;33.53;;
11113;SDS011;5610;52.154;9.198;2024-01-11T13:43:42;50.95;;;32.95;;
11113;SDS011;5610;52.154;9.198;2024-01-11T13:46:28;54.75;;;34.45;;
11113;SDS011;5610;52.154;9.198;2024-01-11T13:49:14;56.58;;;37.33;;
11113;SDS011;5610;52.154;9.198;2024-01-11T13:51:59;66.53;;;38.58;;
11113;SDS011;5610;52.154;9.198;2024-01-11T13:54:45;57.47;;;39.22;;
11113;SDS011;5610;52.154;9.198;2024-01-11T13:57:30;60.17;;;39.33;;
11113;SDS011;5610;52.154;9.198;2024-01-11T14:00:15;56.42;;;38.70;;
11113;SDS011;5610;52.154;9.198;2024-01-11T14:03:03;55.70;;;36.28;;
11113;SDS011;5610;52.154;9.198;2024-01-11T14:05:49;52.50;;;35.50;;
11113;SDS011;5610;52.154;9.198;2024-01-11T14:08:34;55.10;;;35.95;;
11113;SDS011;5610;52.154;9.198;2024-01-11T14:11:20;53.10;;;34.83;;
11113;SDS011;5610;52.154;9.198;2024-01-11T14:14:05;55.47;;;35.38;;
11113;SDS011;5610;52.154;9.198;2024-01-11T14:16:50;59.13;;;36.67;;
11113;SDS011;5610;52.154;9.198;2024-01-11T14:19:37;57.33;;;35.03;;
11113;SDS011;5610;52.154;9.198;2024-01-11T14:22:22;58.15;;;37.55;;
11113;SDS011;5610;52.154;9.198;2024-01-11T14:25:08;58.38;;;37.90;;
11113;SDS011;5610;52.154;9.198;2024-01-11T14:27:55;53.50;;;35.90;;
11113;SDS011;5610;52.154;9.198;2024-01-11T14:30:40;57.97;;;37.78;;
11113;SDS011;5610;52.154;9.198;2024-01-11T14:33:26;58.88;;;40.30;;
11113;SDS011;5610;52.154;9.198;2024-01-11T14:36:13;65.95;;;40.38;;
11113;SDS011;5610;52.154;9.198;2024-01-11T14:38:59;59.90;;;39.90;;
11113;SDS011;5610;52.154;9.198;2024-01-11T14:41:47;68.47;;;39.47;;
11113;SDS011;5610;52.154;9.198;2024-01-11T14:44:32;59.58;;;36.80;;
11113;SDS011;5610;52.154;9.198;2024-01-11T14:47:17;61.65;;;39.50;;
11113;SDS011;5610;52.154;9.198;2024-01-11T14:50:03;61.70;;;37.83;;
11113;SDS011;5610;52.154;9.198;2024-01-11T14:52:55;59.08;;;36.47;;
11113;SDS011;5610;52.154;9.198;2024-01-11T14:55:40;61.42;;;37.17;;
11113;SDS011;5610;52.154;9.198;2024-01-11T14:58:26;51.67;;;34.08;;
11113;SDS011;5610;52.154;9.198;2024-01-11T15:01:11;57.58;;;38.28;;
11113;SDS011;5610;52.154;9.198;2024-01-11T15:03:58;61.85;;;39.20;;
11113;SDS011;5610;52.154;9.198;2024-01-11T15:06:43;54.55;;;37.50;;
11113;SDS011;5610;52.154;9.198;2024-01-11T15:09:30;57.40;;;37.55;;
11113;SDS011;5610;52.154;9.198;2024-01-11T15:12:15;63.15;;;39.60;;
11113;SDS011;5610;52.154;9.198;2024-01-11T15:15:01;62.03;;;40.05;;
11113;SDS011;5610;52.154;9.198;2024-01-11T15:17:49;60.70;;;39.00;;
11113;SDS011;5610;52.154;9.198;2024-01-11T15:20:35;58.95;;;35.67;;
11113;SDS011;5610;52.154;9.198;2024-01-11T15:23:20;51.88;;;36.05;;
11113;SDS011;5610;52.154;9.198;2024-01-11T15:26:07;60.78;;;35.33;;
11113;SDS011;5610;52.154;9.198;2024-01-11T15:28:53;60.30;;;38.83;;
11113;SDS011;5610;52.154;9.198;2024-01-11T15:31:39;54.40;;;37.70;;
11113;SDS011;5610;52.154;9.198;2024-01-11T15:34:28;52.92;;;39.05;;
11113;SDS011;5610;52.154;9.198;2024-01-11T15:37:13;52.10;;;38.22;;
11113;SDS011;5610;52.154;9.198;2024-01-11T15:39:59;53.30;;;35.70;;
11113;SDS011;5610;52.154;9.198;2024-01-11T15:42:45;55.45;;;35.58;;
11113;SDS011;5610;52.154;9.198;2024-01-11T15:45:32;57.40;;;35.58;;
11113;SDS011;5610;52.154;9.198;2024-01-11T15:48:17;56.67;;;38.60;;
11113;SDS011;5610;52.154;9.198;2024-01-11T15:51:02;59.20;;;38.17;;
11113;SDS011;5610;52.154;9.198;2024-01-11T15:53:47;62.30;;;39.80;;
11113;SDS011;5610;52.154;9.198;2024-01-11T15:56:33;55.85;;;40.85;;
11113;SDS011;5610;52.154;9.198;2024-01-11T15:59:20;79.80;;;54.70;;
11113;SDS011;5610;52.154;9.198;2024-01-11T16:02:05;60.13;;;39.92;;
11113;SDS011;5610;52.154;9.198;2024-01-11T16:04:50;59.63;;;39.33;;
11113;SDS011;5610;52.154;9.198;2024-01-11T16:07:37;62.55;;;38.92;;
11113;SDS011;5610;52.154;9.198;2024-01-11T16:10:23;58.65;;;40.72;;
11113;SDS011;5610;52.154;9.198;2024-01-11T16:13:08;61.30;;;40.40;;
11113;SDS011;5610;52.154;9.198;2024-01-11T16:15:55;60.78;;;39.42;;
11113;SDS011;5610;52.154;9.198;2024-01-11T16:18:41;65.25;;;41.60;;
11113;SDS011;5610;52.154;9.198;2024-01-11T16:21:26;64.05;;;41.50;;
11113;SDS011;5610;52.154;9.198;2024-01-11T16:24:12;57.25;;;40.53;;